Time;durP1;ratioP1;P1;durP2;ratioP2;P2;SDS_P1;SDS_P2;PMS_P1;PMS_P2;Temp;Humidity;BMP_temperature;BMP_pressure;BME280_temperature;BME280_humidity;BME280_pressure;Samples;Min_cycle;Max_cycle;Signal;HPM_P1;HPM_P2
2023/05/06 00:02:14;;;;;;;17.40;11.32;;;12.10;99.90;;;;;;5071660;28;20076;-62
2023/05/06 00:04:40;;;;;;;21.65;12.57;;;12.10;99.90;;;;;;5085753;28;20228;-61
2023/05/06 00:07:05;;;;;;;20.70;11.30;;;12.10;99.90;;;;;;5085867;28;20534;-62
2023/05/06 00:09:31;;;;;;;17.95;11.48;;;12.10;99.90;;;;;;5082016;28;20687;-62
2023/05/06 00:11:57;;;;;;;17.88;11.02;;;12.10;99.90;;;;;;5066522;28;20127;-61
2023/05/06 00:14:22;;;;;;;19.77;11.48;;;12.10;99.90;;;;;;5064102;28;20044;-59
2023/05/06 00:16:49;;;;;;;18.77;11.50;;;12.10;99.90;;;;;;5066890;28;20032;-61
2023/05/06 00:19:15;;;;;;;22.40;11.98;;;12.10;99.90;;;;;;5048027;28;20054;-61
2023/05/06 00:21:41;;;;;;;21.38;12.25;;;12.00;99.90;;;;;;5065152;28;20682;-61
2023/05/06 00:24:06;;;;;;;21.42;12.13;;;12.00;99.90;;;;;;5065480;28;20518;-61
2023/05/06 00:26:32;;;;;;;21.48;12.38;;;12.00;99.90;;;;;;5048567;28;20051;-60
2023/05/06 00:28:58;;;;;;;19.65;12.05;;;11.90;99.90;;;;;;5065093;28;20098;-64
2023/05/06 00:31:23;;;;;;;21.40;12.60;;;11.90;99.90;;;;;;5047815;28;20037;-62
2023/05/06 00:33:49;;;;;;;22.15;12.20;;;11.90;99.90;;;;;;5064929;28;20083;-63
2023/05/06 00:36:14;;;;;;;17.27;11.68;;;11.90;99.90;;;;;;5048321;28;20519;-61
2023/05/06 00:38:40;;;;;;;20.88;12.10;;;11.80;99.90;;;;;;5065133;28;20507;-61
2023/05/06 00:41:06;;;;;;;19.15;10.68;;;11.80;99.90;;;;;;5064034;28;20068;-61
2023/05/06 00:43:32;;;;;;;19.08;11.27;;;11.70;99.90;;;;;;5067433;28;20040;-61
2023/05/06 00:45:58;;;;;;;19.88;11.38;;;11.70;99.90;;;;;;5084726;28;20602;-60
2023/05/06 00:48:24;;;;;;;17.67;10.77;;;11.70;99.90;;;;;;5076892;28;20043;-62
2023/05/06 00:50:49;;;;;;;17.73;10.52;;;11.60;99.90;;;;;;5085475;28;20090;-62
2023/05/06 00:53:20;;;;;;;19.48;10.93;;;11.60;99.90;;;;;;5071167;28;20040;-62
2023/05/06 00:55:48;;;;;;;20.88;11.43;;;11.60;99.90;;;;;;5064562;28;20045;-63
2023/05/06 00:58:14;;;;;;;19.52;10.05;;;11.50;99.90;;;;;;5064513;28;20048;-61
2023/05/06 01:00:41;;;;;;;18.08;10.82;;;11.50;99.90;;;;;;5072338;28;20044;-62
2023/05/06 01:03:07;;;;;;;21.08;11.27;;;11.50;99.90;;;;;;5053778;28;20543;-62
2023/05/06 01:05:47;;;;;;;17.42;11.02;;;11.40;99.90;;;;;;5049294;28;20072;-64
2023/05/06 01:08:28;;;;;;;16.42;10.48;;;11.40;99.90;;;;;;5059581;28;20586;-63
2023/05/06 01:11:21;;;;;;;21.70;10.10;;;11.40;99.90;;;;;;5076921;28;20548;-61
2023/05/06 01:13:54;;;;;;;20.85;8.50;;;11.40;99.90;;;;;;5066320;28;20032;-61
2023/05/06 01:16:24;;;;;;;16.40;8.48;;;11.30;99.90;;;;;;5063981;28;20113;-63
2023/05/06 01:18:51;;;;;;;15.40;9.20;;;11.30;99.90;;;;;;5064773;28;20044;-61
2023/05/06 01:21:18;;;;;;;15.20;8.48;;;11.20;99.90;;;;;;5063111;28;20040;-60
2023/05/06 01:23:56;;;;;;;15.18;8.07;;;11.20;99.90;;;;;;5047441;28;20411;-63
2023/05/06 01:26:23;;;;;;;20.38;8.70;;;11.10;99.90;;;;;;5072661;28;20051;-62
2023/05/06 01:28:48;;;;;;;29.92;8.45;;;11.10;99.90;;;;;;5084580;28;20507;-62
2023/05/06 01:31:26;;;;;;;15.57;8.82;;;11.10;99.90;;;;;;5065138;28;20066;-63
2023/05/06 01:34:04;;;;;;;24.63;9.73;;;11.00;99.90;;;;;;5064461;28;20072;-60
2023/05/06 01:36:40;;;;;;;11.82;7.82;;;11.00;99.90;;;;;;5063542;28;20044;-60
2023/05/06 01:39:16;;;;;;;109.63;11.88;;;11.00;99.90;;;;;;5046842;28;20155;-62
2023/05/06 01:41:43;;;;;;;140.48;13.65;;;11.00;99.90;;;;;;5071763;28;20040;-62
2023/05/06 01:44:09;;;;;;;86.47;12.07;;;11.00;99.90;;;;;;5064893;28;20405;-61
2023/05/06 01:46:35;;;;;;;153.38;13.20;;;10.90;99.90;;;;;;5047250;28;20036;-61
2023/05/06 01:49:04;;;;;;;32.30;7.88;;;10.90;99.90;;;;;;5065030;28;20040;-62
2023/05/06 01:51:32;;;;;;;25.95;9.43;;;10.80;99.90;;;;;;5046186;28;20071;-62
2023/05/06 01:53:57;;;;;;;10.02;7.35;;;10.80;99.90;;;;;;5063321;28;20033;-64
2023/05/06 01:56:23;;;;;;;32.65;11.32;;;10.80;99.90;;;;;;5064234;28;20506;-61
2023/05/06 01:58:49;;;;;;;15.32;9.23;;;10.80;99.90;;;;;;5047067;28;20052;-61
2023/05/06 02:01:15;;;;;;;23.52;10.48;;;10.70;99.90;;;;;;5045906;28;20040;-60
2023/05/06 02:03:40;;;;;;;75.68;12.30;;;10.70;99.90;;;;;;5046710;28;20522;-60
2023/05/06 02:06:06;;;;;;;38.45;12.20;;;10.70;99.90;;;;;;5064806;28;20127;-64
2023/05/06 02:08:31;;;;;;;19.70;10.55;;;10.60;99.90;;;;;;5063616;28;20546;-61
2023/05/06 02:10:57;;;;;;;36.42;12.75;;;10.60;99.90;;;;;;5062574;28;20263;-61
2023/05/06 02:13:23;;;;;;;28.40;12.18;;;10.50;99.90;;;;;;5063461;28;20047;-62
2023/05/06 02:15:53;;;;;;;92.10;11.88;;;10.50;99.90;;;;;;5070722;28;20055;-61
2023/05/06 02:18:18;;;;;;;106.68;12.88;;;10.50;99.90;;;;;;5051515;28;20078;-60
2023/05/06 02:20:44;;;;;;;194.63;13.98;;;10.50;99.90;;;;;;5063924;28;20068;-61
2023/05/06 02:23:10;;;;;;;211.27;13.18;;;10.40;99.90;;;;;;5079542;28;20047;-62
2023/05/06 02:25:36;;;;;;;328.30;15.43;;;10.40;99.90;;;;;;5079081;28;20052;-62
2023/05/06 02:28:01;;;;;;;86.72;10.55;;;10.30;99.90;;;;;;5063428;28;20055;-63
2023/05/06 02:30:29;;;;;;;256.70;15.85;;;10.30;99.90;;;;;;5062448;28;20462;-65
2023/05/06 02:32:56;;;;;;;340.13;20.92;;;10.20;99.90;;;;;;5063135;28;20620;-63
2023/05/06 02:35:22;;;;;;;175.07;15.13;;;10.20;99.90;;;;;;5062651;28;20032;-62
2023/05/06 02:37:47;;;;;;;17.65;8.10;;;10.20;99.90;;;;;;5069186;28;20635;-62
2023/05/06 02:40:13;;;;;;;100.15;12.98;;;10.10;99.90;;;;;;5086247;28;20047;-62
2023/05/06 02:42:39;;;;;;;13.20;6.78;;;10.10;99.90;;;;;;5077152;28;20649;-62
2023/05/06 02:45:05;;;;;;;76.95;9.07;;;10.10;99.90;;;;;;5080433;28;20604;-61
2023/05/06 02:47:30;;;;;;;124.90;13.07;;;10.10;99.90;;;;;;5077711;28;20091;-61
2023/05/06 02:49:56;;;;;;;14.30;6.97;;;10.00;99.90;;;;;;5087282;28;20553;-61
2023/05/06 02:52:22;;;;;;;24.80;6.55;;;9.90;99.90;;;;;;5069954;28;20055;-62
2023/05/06 02:54:47;;;;;;;53.22;7.07;;;9.90;99.90;;;;;;5068972;28;20089;-63
2023/05/06 02:57:13;;;;;;;36.13;5.50;;;9.90;99.90;;;;;;5066772;28;20044;-61
2023/05/06 02:59:38;;;;;;;18.48;5.18;;;9.80;99.90;;;;;;5050821;28;20123;-61
2023/05/06 03:02:04;;;;;;;34.38;7.07;;;9.80;99.90;;;;;;5082544;28;20429;-62
2023/05/06 03:04:29;;;;;;;17.95;6.40;;;9.70;99.90;;;;;;5067356;28;20036;-62
2023/05/06 03:06:56;;;;;;;89.13;9.93;;;9.60;99.90;;;;;;5067860;28;20127;-62
2023/05/06 03:09:22;;;;;;;68.85;6.95;;;9.60;99.90;;;;;;5066206;28;20047;-62
2023/05/06 03:11:48;;;;;;;34.10;6.70;;;9.60;99.90;;;;;;5066366;28;20683;-64
2023/05/06 03:14:14;;;;;;;47.30;6.93;;;9.60;99.90;;;;;;5049555;28;20036;-63
2023/05/06 03:16:40;;;;;;;66.30;8.60;;;9.60;99.90;;;;;;5066810;28;20398;-62
2023/05/06 03:19:05;;;;;;;37.28;9.20;;;9.50;99.90;;;;;;5066642;28;20048;-63
2023/05/06 03:21:32;;;;;;;101.40;11.68;;;9.50;99.90;;;;;;5066184;28;20047;-61
2023/05/06 03:23:57;;;;;;;58.20;9.70;;;9.50;99.90;;;;;;5065979;28;20055;-62
2023/05/06 03:26:23;;;;;;;93.15;11.63;;;9.40;99.90;;;;;;5075133;28;20048;-65
2023/05/06 03:28:49;;;;;;;49.35;11.38;;;9.30;99.90;;;;;;5087026;28;20384;-63
2023/05/06 03:31:14;;;;;;;263.33;21.23;;;9.20;99.90;;;;;;5085475;28;20048;-63
2023/05/06 03:33:40;;;;;;;40.17;7.63;;;9.20;99.90;;;;;;5068337;28;20093;-63
2023/05/06 03:36:06;;;;;;;37.10;7.80;;;9.30;99.90;;;;;;5065827;28;20369;-63
2023/05/06 03:38:32;;;;;;;34.33;8.77;;;9.30;99.90;;;;;;5049631;28;20044;-62
2023/05/06 03:40:57;;;;;;;100.97;11.15;;;9.30;99.90;;;;;;5065310;28;20550;-63
2023/05/06 03:43:23;;;;;;;114.50;9.93;;;9.30;99.90;;;;;;5066435;28;20166;-63
2023/05/06 03:45:49;;;;;;;33.40;6.35;;;9.30;99.90;;;;;;5066163;28;20079;-64
2023/05/06 03:48:15;;;;;;;61.28;10.95;;;9.20;99.90;;;;;;5061620;28;20044;-63
2023/05/06 03:50:41;;;;;;;38.55;9.25;;;9.20;99.90;;;;;;5085151;28;20051;-63
2023/05/06 03:53:07;;;;;;;25.30;8.05;;;9.20;99.90;;;;;;5078919;28;20040;-63
2023/05/06 03:55:32;;;;;;;20.10;6.70;;;9.20;99.90;;;;;;5067208;28;20075;-63
2023/05/06 03:57:58;;;;;;;48.65;10.65;;;9.20;99.90;;;;;;5067018;28;20075;-62
2023/05/06 04:00:24;;;;;;;68.53;14.38;;;9.20;99.90;;;;;;5066821;28;20070;-63
2023/05/06 04:02:50;;;;;;;51.58;10.05;;;9.20;99.90;;;;;;5050089;28;20037;-62
2023/05/06 04:05:16;;;;;;;59.05;11.93;;;9.20;99.90;;;;;;5066480;28;20045;-63
2023/05/06 04:07:41;;;;;;;63.28;13.93;;;9.10;99.90;;;;;;5066498;28;20037;-62
2023/05/06 04:10:07;;;;;;;52.05;14.05;;;9.10;99.90;;;;;;5065098;28;20109;-64
2023/05/06 04:12:33;;;;;;;52.72;11.70;;;9.00;99.90;;;;;;5065854;28;20054;-62
2023/05/06 04:14:59;;;;;;;36.78;9.57;;;9.00;99.90;;;;;;5048408;28;20484;-62
2023/05/06 04:17:24;;;;;;;55.75;11.60;;;9.00;99.90;;;;;;5067057;28;20083;-64
2023/05/06 04:19:52;;;;;;;43.97;9.73;;;9.00;99.90;;;;;;5065714;28;20059;-62
2023/05/06 04:22:18;;;;;;;73.35;14.68;;;8.90;99.90;;;;;;5065794;28;20051;-64
2023/05/06 04:24:44;;;;;;;68.10;11.82;;;8.90;99.90;;;;;;5032311;28;20158;-62
2023/05/06 04:27:10;;;;;;;58.47;10.80;;;8.90;99.90;;;;;;5049136;28;20761;-63
2023/05/06 04:29:36;;;;;;;31.67;8.77;;;8.90;99.90;;;;;;5048400;28;20131;-63
2023/05/06 04:32:03;;;;;;;26.60;7.35;;;8.90;99.90;;;;;;5065857;28;20052;-63
2023/05/06 04:34:29;;;;;;;19.38;8.88;;;8.90;99.90;;;;;;5065415;28;20051;-63
2023/05/06 04:36:57;;;;;;;17.52;8.27;;;8.90;99.90;;;;;;5048672;28;20115;-63
2023/05/06 04:39:23;;;;;;;23.88;8.63;;;9.00;99.90;;;;;;5049101;28;20084;-64
2023/05/06 04:41:49;;;;;;;20.17;9.38;;;9.00;99.90;;;;;;5066917;28;20104;-63
2023/05/06 04:44:15;;;;;;;19.95;8.60;;;9.10;99.90;;;;;;5075946;28;20044;-63
2023/05/06 04:46:41;;;;;;;16.67;7.80;;;9.10;99.90;;;;;;5033293;28;20541;-64
2023/05/06 04:49:07;;;;;;;19.42;8.90;;;9.20;99.90;;;;;;5079394;28;20032;-64
2023/05/06 04:51:32;;;;;;;19.42;8.50;;;9.30;99.90;;;;;;5082406;28;20036;-63
2023/05/06 04:53:58;;;;;;;21.65;9.77;;;9.40;99.90;;;;;;5065036;28;20119;-63
2023/05/06 04:56:24;;;;;;;38.90;9.02;;;9.50;99.90;;;;;;5047843;28;20543;-62
2023/05/06 04:58:50;;;;;;;39.38;7.38;;;9.60;99.90;;;;;;5064978;28;20056;-62
2023/05/06 05:01:18;;;;;;;60.65;8.10;;;9.60;99.90;;;;;;5063984;28;20044;-62
2023/05/06 05:03:44;;;;;;;36.83;8.07;;;9.70;99.90;;;;;;5048530;28;20191;-64
2023/05/06 05:06:12;;;;;;;27.77;7.88;;;9.70;99.90;;;;;;5065060;28;20052;-62
2023/05/06 05:08:38;;;;;;;22.17;8.23;;;9.70;99.90;;;;;;5064534;28;20174;-62
2023/05/06 05:11:05;;;;;;;18.85;7.55;;;9.70;99.90;;;;;;5063719;28;20638;-63
2023/05/06 05:13:31;;;;;;;18.35;7.63;;;9.80;99.90;;;;;;5064577;28;20049;-63
2023/05/06 05:15:56;;;;;;;43.45;8.40;;;9.70;99.90;;;;;;5065553;28;20051;-62
2023/05/06 05:18:23;;;;;;;16.70;8.30;;;9.80;99.90;;;;;;5064492;28;20105;-62
2023/05/06 05:20:48;;;;;;;14.50;7.55;;;9.80;99.90;;;;;;5064407;28;20048;-63
2023/05/06 05:23:17;;;;;;;14.75;8.55;;;9.80;99.90;;;;;;5064587;28;20166;-62
2023/05/06 05:25:42;;;;;;;14.00;9.13;;;9.80;99.90;;;;;;5076445;28;20040;-62
2023/05/06 05:28:08;;;;;;;13.45;9.00;;;9.80;99.90;;;;;;5064807;28;20380;-63
2023/05/06 05:30:33;;;;;;;14.10;9.70;;;9.80;99.90;;;;;;5063532;28;20651;-61
2023/05/06 05:32:59;;;;;;;14.88;10.50;;;9.80;99.90;;;;;;5075181;28;20756;-63
2023/05/06 05:35:24;;;;;;;14.85;10.77;;;9.90;99.90;;;;;;5082200;28;20439;-64
2023/05/06 05:37:50;;;;;;;20.33;12.27;;;10.00;99.90;;;;;;5065389;28;20066;-62
2023/05/06 05:40:16;;;;;;;15.82;11.98;;;10.00;99.90;;;;;;5065005;28;20036;-63
2023/05/06 05:42:41;;;;;;;17.73;12.02;;;10.10;99.90;;;;;;5080777;28;20518;-63
2023/05/06 05:45:07;;;;;;;15.35;11.40;;;10.10;99.90;;;;;;5063316;28;20041;-62
2023/05/06 05:47:33;;;;;;;15.95;11.30;;;10.20;99.90;;;;;;5068538;28;20041;-61
2023/05/06 05:49:58;;;;;;;17.05;11.27;;;10.20;99.90;;;;;;5083616;28;20403;-62
2023/05/06 05:52:24;;;;;;;18.38;12.13;;;10.30;99.90;;;;;;5069708;28;20627;-63
2023/05/06 05:54:50;;;;;;;16.77;11.50;;;10.40;99.90;;;;;;5066710;28;20048;-61
2023/05/06 05:57:15;;;;;;;20.27;12.50;;;10.40;99.90;;;;;;5068898;28;20049;-62
2023/05/06 05:59:41;;;;;;;19.52;13.20;;;10.40;99.90;;;;;;5063544;28;20052;-63
2023/05/06 06:02:07;;;;;;;25.50;15.07;;;10.50;99.90;;;;;;5063533;28;20055;-64
2023/05/06 06:04:32;;;;;;;21.27;13.82;;;10.50;99.90;;;;;;5046915;28;20098;-63
2023/05/06 06:07:00;;;;;;;27.92;15.52;;;10.60;99.90;;;;;;5063024;28;20116;-63
2023/05/06 06:09:26;;;;;;;24.08;14.90;;;10.60;99.90;;;;;;5046182;28;20531;-63
2023/05/06 06:11:52;;;;;;;26.55;15.40;;;10.70;99.90;;;;;;5062275;28;20127;-61
2023/05/06 06:14:18;;;;;;;27.90;14.82;;;10.70;99.90;;;;;;5063052;28;20614;-64
2023/05/06 06:16:43;;;;;;;25.95;15.95;;;10.80;99.90;;;;;;5064803;28;20152;-62
2023/05/06 06:19:09;;;;;;;25.80;15.85;;;10.90;99.90;;;;;;5063435;28;20032;-63
2023/05/06 06:21:35;;;;;;;27.27;16.40;;;10.90;99.90;;;;;;5046184;28;20571;-61
2023/05/06 06:24:01;;;;;;;33.45;18.35;;;11.00;99.90;;;;;;5067112;28;20702;-64
2023/05/06 06:26:26;;;;;;;27.55;16.42;;;11.10;99.90;;;;;;5056335;28;20647;-62
2023/05/06 06:28:52;;;;;;;30.48;17.73;;;11.10;99.90;;;;;;5051100;28;20036;-62
2023/05/06 06:31:18;;;;;;;26.95;16.65;;;11.20;99.90;;;;;;5078818;28;20032;-64
2023/05/06 06:33:43;;;;;;;26.48;16.17;;;11.30;99.90;;;;;;5061806;28;20766;-62
2023/05/06 06:36:09;;;;;;;26.42;16.77;;;11.30;99.90;;;;;;5063671;28;20419;-66
2023/05/06 06:38:35;;;;;;;27.25;16.30;;;11.30;99.90;;;;;;5062239;28;20774;-61
2023/05/06 06:41:00;;;;;;;29.77;17.17;;;11.40;99.90;;;;;;5062078;28;20037;-63
2023/05/06 06:43:26;;;;;;;24.50;16.00;;;11.40;99.90;;;;;;5064120;28;20438;-61
2023/05/06 06:45:52;;;;;;;25.00;15.80;;;11.50;99.90;;;;;;5077859;28;20049;-61
2023/05/06 06:48:18;;;;;;;24.20;15.48;;;11.50;99.90;;;;;;5063038;28;20072;-63
2023/05/06 06:50:44;;;;;;;27.98;16.15;;;11.50;99.90;;;;;;5062490;28;20048;-63
2023/05/06 06:53:09;;;;;;;28.50;16.13;;;11.50;99.90;;;;;;5062565;28;20044;-63
2023/05/06 06:55:35;;;;;;;28.05;16.83;;;11.50;99.90;;;;;;5062024;28;20098;-61
2023/05/06 06:58:01;;;;;;;27.15;16.45;;;11.60;99.90;;;;;;5064226;28;20048;-62
2023/05/06 07:00:27;;;;;;;26.52;15.75;;;11.60;99.90;;;;;;5052248;28;20040;-61
2023/05/06 07:02:52;;;;;;;26.55;16.42;;;11.60;99.90;;;;;;5073333;28;20041;-61
2023/05/06 07:05:18;;;;;;;29.30;16.85;;;11.60;99.90;;;;;;5063054;28;20445;-63
2023/05/06 07:07:45;;;;;;;28.52;17.63;;;11.60;99.90;;;;;;5062056;28;20067;-62
2023/05/06 07:10:10;;;;;;;29.48;17.55;;;11.60;99.90;;;;;;5079514;28;20052;-62
2023/05/06 07:12:36;;;;;;;31.15;18.35;;;11.70;99.90;;;;;;5081592;28;20058;-62
2023/05/06 07:15:05;;;;;;;30.10;17.88;;;11.80;99.90;;;;;;5074893;28;20045;-61
2023/05/06 07:17:32;;;;;;;31.70;18.83;;;11.80;99.90;;;;;;5063348;28;20048;-61
2023/05/06 07:19:58;;;;;;;34.25;19.08;;;11.90;99.90;;;;;;5062053;28;20044;-60
2023/05/06 07:22:23;;;;;;;32.10;18.77;;;11.90;99.90;;;;;;5081440;28;20055;-63
2023/05/06 07:24:49;;;;;;;29.98;18.75;;;12.00;99.90;;;;;;5085446;28;20097;-60
2023/05/06 07:27:15;;;;;;;29.90;19.30;;;12.00;99.90;;;;;;5059135;28;20043;-64
2023/05/06 07:29:40;;;;;;;31.50;18.73;;;12.10;99.90;;;;;;5085732;28;20509;-63
2023/05/06 07:32:06;;;;;;;31.17;19.08;;;12.10;99.90;;;;;;5085010;28;20083;-62
2023/05/06 07:34:33;;;;;;;32.45;19.75;;;12.20;99.90;;;;;;5086594;28;20274;-61
2023/05/06 07:36:59;;;;;;;31.63;20.30;;;12.20;99.90;;;;;;5086149;28;20044;-60
2023/05/06 07:39:24;;;;;;;29.33;19.35;;;12.20;99.90;;;;;;5086193;28;20039;-61
2023/05/06 07:41:50;;;;;;;36.40;21.83;;;12.20;99.90;;;;;;5075042;28;20045;-65
2023/05/06 07:44:16;;;;;;;32.65;20.92;;;12.20;99.90;;;;;;5084565;28;20105;-60
2023/05/06 07:46:41;;;;;;;34.08;21.08;;;12.30;99.90;;;;;;5084328;28;20044;-63
2023/05/06 07:49:07;;;;;;;30.77;20.33;;;12.30;99.90;;;;;;5084548;28;20522;-63
2023/05/06 07:51:33;;;;;;;35.30;22.13;;;12.40;99.90;;;;;;5076921;28;20043;-60
2023/05/06 07:53:58;;;;;;;30.88;20.63;;;12.50;99.90;;;;;;5065817;28;20041;-62
2023/05/06 07:56:24;;;;;;;32.83;19.83;;;12.60;99.90;;;;;;5073117;28;20072;-61
2023/05/06 07:58:49;;;;;;;29.75;19.40;;;12.60;99.90;;;;;;5067329;28;20090;-61
2023/05/06 08:01:15;;;;;;;34.72;20.30;;;12.70;99.90;;;;;;5048933;28;20032;-66
2023/05/06 08:03:41;;;;;;;31.05;20.08;;;12.80;99.90;;;;;;5065769;28;20446;-60
2023/05/06 08:06:07;;;;;;;31.77;21.15;;;12.90;99.90;;;;;;5048926;28;20051;-62
2023/05/06 08:08:32;;;;;;;31.02;20.45;;;13.00;99.90;;;;;;5065366;28;20401;-62
2023/05/06 08:10:58;;;;;;;34.30;20.65;;;13.20;99.90;;;;;;5069932;28;20047;-60
2023/05/06 08:13:25;;;;;;;32.00;20.52;;;13.30;99.90;;;;;;5086597;28;20132;-60
2023/05/06 08:15:51;;;;;;;32.42;20.77;;;13.40;99.90;;;;;;5086885;28;20052;-62
2023/05/06 08:18:17;;;;;;;28.65;19.73;;;13.50;99.90;;;;;;5067444;28;20518;-60
2023/05/06 08:20:43;;;;;;;29.45;20.25;;;13.70;99.90;;;;;;5065634;28;20480;-61
2023/05/06 08:23:08;;;;;;;28.95;19.30;;;14.00;99.90;;;;;;5068684;28;20226;-63
2023/05/06 08:25:34;;;;;;;32.10;21.83;;;14.30;99.90;;;;;;5067603;28;20116;-61
2023/05/06 08:28:00;;;;;;;25.33;17.67;;;14.70;99.90;;;;;;5065609;28;20063;-62
2023/05/06 08:30:25;;;;;;;27.92;18.33;;;15.20;99.90;;;;;;5048977;28;20087;-60
2023/05/06 08:32:52;;;;;;;24.30;16.80;;;15.70;99.90;;;;;;5042777;28;20037;-59
2023/05/06 08:35:17;;;;;;;21.40;15.52;;;16.20;99.90;;;;;;5065154;28;20718;-59
2023/05/06 08:37:43;;;;;;;24.98;15.98;;;16.70;99.90;;;;;;5065042;28;20324;-59
2023/05/06 08:40:20;;;;;;;20.52;15.25;;;17.00;99.90;;;;;;5050207;28;20040;-60
2023/05/06 08:42:47;;;;;;;20.83;14.60;;;17.30;99.90;;;;;;5051861;28;20037;-62
2023/05/06 08:45:14;;;;;;;25.27;15.90;;;17.60;99.90;;;;;;5078027;28;20475;-63
2023/05/06 08:47:40;;;;;;;21.50;15.23;;;18.00;99.90;;;;;;5061170;28;20499;-60
2023/05/06 08:50:07;;;;;;;20.75;14.82;;;18.30;99.90;;;;;;5085029;28;20036;-58
2023/05/06 08:52:34;;;;;;;20.92;14.68;;;18.40;99.90;;;;;;5086582;28;20313;-58
2023/05/06 08:55:03;;;;;;;21.95;15.05;;;18.40;99.90;;;;;;5068925;28;20036;-59
2023/05/06 08:57:31;;;;;;;20.25;14.23;;;18.30;99.90;;;;;;5052300;28;20078;-59
2023/05/06 08:59:57;;;;;;;21.33;15.10;;;18.40;99.90;;;;;;5064604;28;20035;-60
2023/05/06 09:02:24;;;;;;;23.60;15.00;;;18.20;99.90;;;;;;5047945;28;20123;-61
2023/05/06 09:04:51;;;;;;;25.67;14.70;;;18.20;99.90;;;;;;5066531;28;20044;-60
2023/05/06 09:07:20;;;;;;;24.65;15.50;;;18.00;99.90;;;;;;5064930;28;20041;-61
2023/05/06 09:09:46;;;;;;;21.73;15.20;;;18.00;99.90;;;;;;5046683;28;20613;-59
2023/05/06 09:12:13;;;;;;;21.67;16.25;;;17.80;99.90;;;;;;5064819;28;20044;-61
2023/05/06 09:14:40;;;;;;;20.17;15.65;;;17.80;99.90;;;;;;5047908;28;20576;-62
2023/05/06 09:17:27;;;;;;;18.65;13.57;;;18.00;99.90;;;;;;5048494;28;20053;-63
2023/05/06 09:19:55;;;;;;;21.42;16.25;;;18.00;99.90;;;;;;5047696;28;20447;-62
2023/05/06 09:22:30;;;;;;;19.58;13.90;;;18.10;99.90;;;;;;5064784;28;20131;-64
2023/05/06 09:24:57;;;;;;;20.55;15.63;;;18.30;99.90;;;;;;5063468;28;20041;-64
2023/05/06 09:27:26;;;;;;;17.15;12.32;;;18.50;99.90;;;;;;5080881;28;20054;-62
2023/05/06 09:30:12;;;;;;;17.15;12.45;;;18.60;99.90;;;;;;5083978;28;20032;-64
2023/05/06 09:32:38;;;;;;;17.33;12.23;;;19.00;99.90;;;;;;5059337;28;20044;-63
2023/05/06 09:35:04;;;;;;;18.30;12.45;;;19.30;99.90;;;;;;5048007;28;20135;-62
2023/05/06 09:37:30;;;;;;;18.95;13.02;;;19.60;99.90;;;;;;5064639;28;20641;-63
2023/05/06 09:40:00;;;;;;;13.80;9.15;;;19.60;99.90;;;;;;5065724;28;20060;-65
2023/05/06 09:42:28;;;;;;;13.95;9.38;;;19.70;99.90;;;;;;5065676;28;20458;-64
2023/05/06 09:44:55;;;;;;;14.50;9.68;;;19.70;99.90;;;;;;5047457;28;20048;-63
2023/05/06 09:47:25;;;;;;;16.45;10.20;;;20.00;99.90;;;;;;5060152;28;20059;-64
2023/05/06 09:49:58;;;;;;;15.50;9.60;;;20.10;99.90;;;;;;5084061;28;20043;-70
2023/05/06 09:52:29;;;;;;;13.18;7.93;;;20.20;99.90;;;;;;5070851;28;20037;-62
2023/05/06 09:54:55;;;;;;;11.88;7.40;;;20.10;99.90;;;;;;5063080;28;20045;-64
2023/05/06 09:57:21;;;;;;;14.27;8.30;;;20.00;99.90;;;;;;5048033;28;20048;-65
2023/05/06 09:59:48;;;;;;;10.85;6.07;;;20.00;99.90;;;;;;5046497;28;20044;-65
2023/05/06 10:02:14;;;;;;;12.73;7.95;;;20.00;99.90;;;;;;5047983;28;20400;-65
2023/05/06 10:04:41;;;;;;;13.40;8.25;;;20.30;99.90;;;;;;5063863;28;20047;-64
2023/05/06 10:07:13;;;;;;;11.98;7.05;;;20.60;99.90;;;;;;5064101;28;20048;-64
2023/05/06 10:09:40;;;;;;;10.20;6.10;;;21.10;99.90;;;;;;5062437;28;20064;-65
2023/05/06 10:12:07;;;;;;;10.70;7.03;;;21.60;99.90;;;;;;5064140;28;20052;-64
2023/05/06 10:14:36;;;;;;;13.23;7.88;;;22.20;99.90;;;;;;5063957;28;20105;-65
2023/05/06 10:17:07;;;;;;;13.88;8.30;;;22.70;99.40;;;;;;5064430;28;20147;-62
2023/05/06 10:19:35;;;;;;;10.65;6.38;;;22.90;98.20;;;;;;5046836;28;20071;-62
2023/05/06 10:22:14;;;;;;;12.60;7.07;;;22.50;97.20;;;;;;5070731;28;20531;-64
2023/05/06 10:24:57;;;;;;;10.80;7.50;;;22.10;98.40;;;;;;5081435;28;20032;-65
2023/05/06 10:27:23;;;;;;;12.35;8.52;;;21.40;98.20;;;;;;5066722;28;20257;-63
2023/05/06 10:29:57;;;;;;;13.75;8.55;;;21.30;99.90;;;;;;5080533;28;20724;-63
2023/05/06 10:32:26;;;;;;;12.55;8.40;;;21.20;99.90;;;;;;5047170;28;20115;-66
2023/05/06 10:34:54;;;;;;;13.23;9.20;;;21.10;99.90;;;;;;5063404;28;20041;-65
2023/05/06 10:37:27;;;;;;;12.05;9.15;;;20.90;99.90;;;;;;5063968;28;20076;-65
2023/05/06 10:39:55;;;;;;;13.27;9.13;;;20.60;99.90;;;;;;5046565;28;20048;-65
2023/05/06 10:42:27;;;;;;;14.73;9.15;;;20.00;99.90;;;;;;5069924;28;20048;-65
2023/05/06 10:44:56;;;;;;;17.15;10.20;;;19.50;99.90;;;;;;5056405;28;20044;-65
2023/05/06 10:47:21;;;;;;;14.00;9.68;;;19.20;99.90;;;;;;5078010;28;20041;-64
2023/05/06 10:50:22;;;;;;;16.70;10.23;;;19.00;99.90;;;;;;5063033;28;20491;-65
2023/05/06 10:52:56;;;;;;;16.42;10.32;;;19.30;99.90;;;;;;5071844;28;20652;-69
2023/05/06 10:55:28;;;;;;;17.13;11.25;;;19.60;99.90;;;;;;5062531;28;20033;-66
2023/05/06 10:58:12;;;;;;;17.23;11.30;;;19.60;99.90;;;;;;5047426;28;20040;-67
2023/05/06 11:00:38;;;;;;;16.63;10.75;;;19.40;99.90;;;;;;5049768;28;20044;-66
2023/05/06 11:03:10;;;;;;;17.90;11.68;;;19.10;99.90;;;;;;5067277;28;20028;-67
2023/05/06 11:05:50;;;;;;;15.40;11.38;;;18.80;99.90;;;;;;5066388;28;20127;-65
2023/05/06 11:08:25;;;;;;;14.68;10.30;;;18.60;99.90;;;;;;5050743;28;20134;-66
2023/05/06 11:10:52;;;;;;;16.40;11.45;;;18.50;99.90;;;;;;5065386;28;20100;-66
2023/05/06 11:13:26;;;;;;;17.48;11.63;;;18.20;99.90;;;;;;5067236;28;20554;-67
2023/05/06 11:15:53;;;;;;;22.17;13.60;;;18.10;99.90;;;;;;5049965;28;20072;-65
2023/05/06 11:18:28;;;;;;;22.17;12.98;;;18.00;99.90;;;;;;5080795;28;20049;-66
2023/05/06 11:21:00;;;;;;;19.23;14.00;;;18.00;99.90;;;;;;5049767;28;20052;-63
2023/05/06 11:23:41;;;;;;;17.17;12.52;;;17.90;99.90;;;;;;5049460;28;20040;-63
2023/05/06 11:26:11;;;;;;;19.23;14.95;;;17.90;99.90;;;;;;5049892;28;20097;-63
2023/05/06 11:28:37;;;;;;;22.02;15.05;;;17.90;99.90;;;;;;5050268;28;20127;-66
2023/05/06 11:31:03;;;;;;;16.75;13.18;;;17.90;99.90;;;;;;5066128;28;20377;-64
2023/05/06 11:33:35;;;;;;;19.75;14.48;;;18.20;99.90;;;;;;5066809;28;20086;-64
2023/05/06 11:36:02;;;;;;;17.25;11.95;;;18.60;99.90;;;;;;5066985;28;20044;-63
2023/05/06 11:38:47;;;;;;;16.00;10.98;;;18.70;99.90;;;;;;5091054;28;20066;-62
2023/05/06 11:41:14;;;;;;;18.52;13.63;;;18.70;99.90;;;;;;5070003;28;20047;-64
2023/05/06 11:43:45;;;;;;;18.52;12.43;;;18.50;99.90;;;;;;5049890;28;20082;-65
2023/05/06 11:46:11;;;;;;;15.82;11.40;;;18.60;99.90;;;;;;5066105;28;20462;-62
2023/05/06 11:48:36;;;;;;;17.88;12.55;;;18.70;99.90;;;;;;5068306;28;20042;-65
2023/05/06 11:51:02;;;;;;;15.10;10.98;;;18.90;99.90;;;;;;5048963;28;20854;-64
2023/05/06 11:53:29;;;;;;;22.15;14.57;;;19.10;99.90;;;;;;5049833;28;20043;-66
2023/05/06 11:55:55;;;;;;;17.85;12.82;;;19.40;99.90;;;;;;5085732;28;20067;-66
2023/05/06 11:58:27;;;;;;;16.92;12.80;;;19.70;99.90;;;;;;5066853;28;20549;-64
2023/05/06 12:00:55;;;;;;;19.35;13.40;;;20.00;99.90;;;;;;5048726;28;20037;-64
2023/05/06 12:03:23;;;;;;;25.17;17.05;;;20.10;99.90;;;;;;5066538;28;20511;-64
2023/05/06 12:05:49;;;;;;;20.30;15.52;;;20.40;99.90;;;;;;5082707;28;20052;-65
2023/05/06 12:08:22;;;;;;;17.08;12.65;;;20.70;99.90;;;;;;5049424;28;20045;-65
2023/05/06 12:10:49;;;;;;;19.23;13.95;;;21.00;99.90;;;;;;5063682;28;20041;-67
2023/05/06 12:13:15;;;;;;;21.33;15.55;;;21.10;99.90;;;;;;5066274;28;20044;-65
2023/05/06 12:15:42;;;;;;;19.90;15.52;;;20.90;99.90;;;;;;5048844;28;20040;-64
2023/05/06 12:18:08;;;;;;;19.73;15.35;;;20.50;99.90;;;;;;5066224;28;20732;-62
2023/05/06 12:20:34;;;;;;;18.88;15.15;;;20.00;99.90;;;;;;5049648;28;20088;-63
2023/05/06 12:23:11;;;;;;;19.52;15.27;;;19.60;99.90;;;;;;5066299;28;20041;-64
2023/05/06 12:25:38;;;;;;;22.65;17.65;;;19.20;99.90;;;;;;5048164;28;20041;-62
2023/05/06 12:28:17;;;;;;;24.08;17.85;;;19.00;99.90;;;;;;5065742;28;20044;-65
2023/05/06 12:30:43;;;;;;;21.45;15.70;;;18.70;99.90;;;;;;5064946;28;20029;-64
2023/05/06 12:33:10;;;;;;;23.63;16.35;;;18.60;99.90;;;;;;5059469;28;20044;-66